aviador You're here:

KBPK Decoded Metar

MOUNTAIN HOME in AR, USA
Report Time2018-06-24 00:53:00
UTC Time2018-06-24 01:03:00
Flight Rules vfr VFR
WindCalm
Visibility9999 m
Phenomena:N/A
Clouds:N/A
Expected CloudBase > 2,800 ft AGL from Temp-Dew spread
CeilingNone
Temp27°C (ISA +14)
Dew Point20°C (66% RH)
Heat Index28.5°C
QNH1009 hPa
Density Alt2,959 ft
Elevation919 ft
Report Wrong Elevation
Raw Report
KBPK 240053Z AUTO 00000KT 10SM CLR 27/20 A2981 RMK AO2 SLP083
T02720200=

Extra information for KBPK:More info

Metar Taf Metar & Taf Last 4 Metars F.Rules Stats Wind Profile Meteogram Temp Stats Airport Information Weather charts Add Link Nearby VenuesMetar ALERT Operation Metar Decoded Social comments

AIRNAV info for KBPK